CZFN/ZFN METAR and TAF weather

Enter ICAO airport designator
Station Type Date Time Source
CZFN METAR 2019/08/16 23:00 UTC NOAA

CZFN 162300Z 06005KT 15SM BKN120 BKN230 14/04 A2996 RMK AC5CI1 CU EMBD/LAST STFD OBS/NEXT 191500 SLP150


Station Type Date Time Source
CZFN Decoded METAR 2019/08/16 23:00 UTC NOAA

Station name not available
Aug 16, 2019 - 07:00 PM EDT / 2019.08.16 2300 UTC
Wind: from the ENE (060 degrees) at 6 MPH (5 KT):0
Visibility: 15 mile(s):0
Sky conditions: mostly cloudy
Temperature: 57 F (14 C)
Dew Point: 39 F (4 C)
Relative Humidity: 50%
Pressure (altimeter): 29.96 in. Hg (1014 hPa)
ob: CZFN 162300Z 06005KT 15SM BKN120 BKN230 14/04 A2996 RMK AC5CI1 CU EMBD/LAST STFD OBS/NEXT 191500 SLP150
cycle: 23

Station Type Date Time Source
CZFN TAF UTC NOAA

Error!

Example: see airport list